Time;durP1;ratioP1;P1;durP2;ratioP2;P2;SDS_P1;SDS_P2;PMS_P1;PMS_P2;Temp;Humidity;BMP_temperature;BMP_pressure;BME280_temperature;BME280_humidity;BME280_pressure;Samples;Min_cycle;Max_cycle;Signal;HPM_P1;HPM_P2
2022/12/09 00:00:28;;;;;;;23.73;22.33;;;;;;;12.21;92.35;98524.91;5070734;28;20087;-66
2022/12/09 00:02:55;;;;;;;23.13;21.53;;;;;;;12.21;92.52;98516.50;5067589;28;20040;-66
2022/12/09 00:05:22;;;;;;;21.73;20.63;;;;;;;12.19;92.39;98528.03;5087785;28;20067;-66
2022/12/09 00:07:49;;;;;;;23.60;22.20;;;;;;;12.18;92.39;98514.38;5092564;28;20101;-67
2022/12/09 00:10:16;;;;;;;24.53;23.03;;;;;;;12.19;92.14;98516.00;5077262;28;20155;-67
2022/12/09 00:12:44;;;;;;;23.57;22.37;;;;;;;12.18;92.23;98508.78;5067724;28;20151;-68
2022/12/09 00:15:11;;;;;;;23.27;22.07;;;;;;;12.19;92.25;98518.81;5052931;28;20048;-67
2022/12/09 00:17:38;;;;;;;29.03;27.30;;;;;;;12.21;92.13;98503.31;5069635;28;20131;-67
2022/12/09 00:20:07;;;;;;;25.47;23.20;;;;;;;12.26;92.09;98505.91;5077465;28;20465;-67
2022/12/09 00:22:34;;;;;;;25.17;23.17;;;;;;;12.24;92.00;98501.81;5040721;28;20475;-66
2022/12/09 00:25:01;;;;;;;23.63;22.20;;;;;;;12.17;92.00;98485.59;5075316;28;20044;-67
2022/12/09 00:27:28;;;;;;;22.80;21.60;;;;;;;12.26;91.99;98503.09;5064977;28;20499;-66
2022/12/09 00:29:55;;;;;;;43.10;40.60;;;;;;;12.26;91.83;98510.69;5080262;28;20101;-66
2022/12/09 00:32:21;;;;;;;22.40;20.77;;;;;;;12.30;91.81;98509.66;5062893;28;20040;-66
2022/12/09 00:34:48;;;;;;;40.90;38.70;;;;;;;12.32;91.65;98498.94;5069468;28;20060;-66
2022/12/09 00:37:15;;;;;;;23.43;22.17;;;;;;;12.36;91.54;98506.66;5074020;28;20326;-66
2022/12/09 00:39:42;;;;;;;22.60;21.20;;;;;;;12.32;91.41;98498.94;5071903;28;20093;-66
2022/12/09 00:42:09;;;;;;;22.80;21.30;;;;;;;12.33;91.40;98506.16;5072859;28;20163;-65
2022/12/09 00:44:36;;;;;;;21.63;20.43;;;;;;;12.32;91.30;98504.53;5075137;28;20048;-66
2022/12/09 00:47:03;;;;;;;21.47;20.27;;;;;;;12.30;91.25;98497.63;5074179;28;20040;-66
2022/12/09 00:49:30;;;;;;;23.20;21.90;;;;;;;12.34;90.95;98495.78;5074063;28;20090;-66
2022/12/09 00:51:57;;;;;;;22.03;20.73;;;;;;;12.40;91.11;98499.22;5073625;28;20083;-66
2022/12/09 00:54:25;;;;;;;22.57;21.27;;;;;;;12.33;90.79;98500.56;5072315;28;20051;-66
2022/12/09 00:56:52;;;;;;;25.27;23.80;;;;;;;12.37;90.95;98502.69;5074476;28;20090;-67
2022/12/09 00:59:19;;;;;;;21.00;19.80;;;;;;;12.40;90.90;98497.22;5082917;28;20083;-66
2022/12/09 01:01:45;;;;;;;28.27;26.60;;;;;;;12.39;90.88;98492.78;5071619;28;20415;-65
2022/12/09 01:04:12;;;;;;;22.00;20.90;;;;;;;12.33;90.94;98491.38;5068525;28;20440;-65
2022/12/09 01:06:40;;;;;;;21.77;20.53;;;;;;;12.20;91.37;98489.66;5072666;28;20056;-66
2022/12/09 01:09:07;;;;;;;24.30;22.63;;;;;;;12.11;91.68;98494.53;5064066;28;20499;-65
2022/12/09 01:11:34;;;;;;;21.87;20.87;;;;;;;12.05;92.05;98497.50;5070288;28;20094;-65
2022/12/09 01:14:02;;;;;;;25.17;23.80;;;;;;;12.03;92.30;98494.25;5078150;28;20049;-66
2022/12/09 01:16:32;;;;;;;25.27;23.97;;;;;;;12.00;92.52;98492.13;5072633;28;20052;-65
2022/12/09 01:19:01;;;;;;;25.42;24.13;;;;;;;11.95;92.89;98489.53;5077169;28;20462;-66
2022/12/09 01:21:28;;;;;;;23.70;22.60;;;;;;;11.95;93.42;98491.50;5075348;28;20044;-66
2022/12/09 01:23:56;;;;;;;25.00;23.80;;;;;;;11.94;93.32;98478.69;5081864;28;20052;-66
2022/12/09 01:26:23;;;;;;;26.33;25.03;;;;;;;11.97;93.16;98476.03;5074448;28;20047;-65
2022/12/09 01:28:51;;;;;;;27.20;25.53;;;;;;;12.02;93.28;98480.59;5073251;28;20049;-65
2022/12/09 01:31:21;;;;;;;23.53;22.23;;;;;;;12.05;93.11;98471.53;5069185;28;20052;-65
2022/12/09 01:33:49;;;;;;;24.95;23.60;;;;;;;12.07;92.91;98480.41;5067330;28;20049;-66
2022/12/09 01:36:19;;;;;;;25.33;23.87;;;;;;;12.11;92.72;98475.75;5074977;28;20498;-65
2022/12/09 01:38:47;;;;;;;25.00;23.80;;;;;;;12.12;92.96;98466.19;5070150;28;20120;-65
2022/12/09 01:41:16;;;;;;;25.53;23.93;;;;;;;12.18;92.91;98467.63;5066500;28;20517;-66
2022/12/09 01:43:44;;;;;;;24.07;22.87;;;;;;;12.24;92.73;98468.22;5072822;28;20049;-66
2022/12/09 01:46:11;;;;;;;23.03;21.90;;;;;;;12.25;92.80;98453.91;5071376;28;20599;-66
2022/12/09 01:48:42;;;;;;;23.63;22.33;;;;;;;12.29;92.63;98460.44;5069361;28;20417;-65
2022/12/09 01:51:13;;;;;;;24.90;23.53;;;;;;;12.29;92.47;98445.63;5071828;28;20410;-65
2022/12/09 01:53:43;;;;;;;22.63;21.53;;;;;;;12.35;92.18;98451.84;5063052;28;20503;-65
2022/12/09 01:56:34;;;;;;;23.63;22.43;;;;;;;12.31;91.56;98449.75;5071544;28;20385;-65
2022/12/09 01:59:08;;;;;;;23.60;21.93;;;;;;;12.36;91.70;98457.09;5072973;28;20048;-65
2022/12/09 02:01:36;;;;;;;24.90;23.60;;;;;;;12.35;91.73;98435.88;5073187;28;20060;-65
2022/12/09 02:04:05;;;;;;;22.00;21.00;;;;;;;12.34;91.53;98434.22;5074057;28;20083;-65
2022/12/09 02:06:35;;;;;;;22.67;21.67;;;;;;;12.40;91.28;98444.03;5085830;28;20072;-65
2022/12/09 02:09:03;;;;;;;24.48;23.08;;;;;;;12.41;91.23;98445.69;5079886;28;20097;-66
2022/12/09 02:11:52;;;;;;;23.60;22.10;;;;;;;12.38;90.97;98439.97;5069581;28;20128;-66
2022/12/09 02:15:14;;;;;;;23.70;22.50;;;;;;;12.36;90.42;98434.69;5067952;28;20040;-66
2022/12/09 02:17:49;;;;;;;22.67;21.47;;;;;;;12.43;90.77;98443.34;5010007;28;20050;-66
2022/12/09 02:20:33;;;;;;;29.00;27.70;;;;;;;12.42;90.31;98441.72;5081460;28;20048;-66
2022/12/09 02:23:11;;;;;;;23.27;21.87;;;;;;;12.48;90.72;98448.75;5093125;28;20059;-66
2022/12/09 02:25:45;;;;;;;30.27;28.87;;;;;;;12.42;90.53;98436.13;5091271;28;20043;-66
2022/12/09 02:28:49;;;;;;;22.67;21.63;;;;;;;12.41;90.25;98442.91;5090444;28;20048;-66
2022/12/09 02:31:40;;;;;;;23.27;22.07;;;;;;;12.41;90.42;98442.91;5090499;28;20453;-65
2022/12/09 02:34:21;;;;;;;22.40;21.33;;;;;;;12.42;90.46;98435.31;5094889;28;20040;-65
2022/12/09 02:37:03;;;;;;;21.42;20.42;;;;;;;12.39;89.87;98433.19;5093081;28;20048;-65
2022/12/09 02:39:45;;;;;;;23.57;22.47;;;;;;;12.43;90.04;98436.94;5093241;28;20409;-66
2022/12/09 02:42:17;;;;;;;23.80;22.40;;;;;;;12.48;90.35;98434.75;5092633;28;20123;-66
2022/12/09 02:44:47;;;;;;;22.23;21.23;;;;;;;12.50;90.49;98440.00;5090972;28;20052;-66
2022/12/09 02:47:17;;;;;;;;;;;;;;;12.26;90.26;98437.94;5084373;28;20050;-66
2022/12/09 02:49:49;;;;;;;21.63;20.43;;;;;;;12.35;90.43;98427.47;5093699;28;19920;-66
2022/12/09 02:52:17;;;;;;;22.77;21.67;;;;;;;12.40;90.53;98427.25;5094157;28;20074;-65
2022/12/09 02:54:46;;;;;;;39.73;38.07;;;;;;;12.36;90.36;98431.09;5093263;28;20051;-65
2022/12/09 02:57:22;;;;;;;20.43;19.43;;;;;;;12.37;89.99;98422.34;5092924;28;20043;-65
2022/12/09 02:59:49;;;;;;;22.30;21.30;;;;;;;12.39;90.14;98436.81;5090993;28;20052;-65
2022/12/09 03:02:26;;;;;;;21.65;20.65;;;;;;;12.35;90.08;98430.28;5091788;28;20130;-65
2022/12/09 03:05:17;;;;;;;21.57;20.57;;;;;;;12.38;89.96;98429.59;5092068;28;20051;-65
2022/12/09 03:08:02;;;;;;;21.77;20.77;;;;;;;12.32;89.75;98430.97;5072853;28;20040;-66
2022/12/09 03:10:39;;;;;;;22.33;21.13;;;;;;;12.33;90.00;98427.00;5089059;28;20068;-66
2022/12/09 03:13:16;;;;;;;22.53;21.40;;;;;;;12.37;89.69;98425.13;5090424;28;20060;-66
2022/12/09 03:15:49;;;;;;;21.43;20.40;;;;;;;12.40;89.96;98427.25;5096165;28;20056;-65
2022/12/09 03:18:19;;;;;;;22.17;20.87;;;;;;;12.38;89.63;98412.78;5090363;28;20060;-66
2022/12/09 03:20:49;;;;;;;22.02;20.95;;;;;;;12.39;89.90;98411.63;5073526;28;20055;-66
2022/12/09 03:23:18;;;;;;;22.80;21.60;;;;;;;12.45;90.07;98413.06;5067384;28;20057;-66
2022/12/09 03:25:49;;;;;;;21.93;20.90;;;;;;;12.44;89.65;98411.38;5071138;28;20052;-65
2022/12/09 03:28:22;;;;;;;22.80;21.60;;;;;;;12.44;89.67;98410.56;5065485;28;20078;-67
2022/12/09 03:30:52;;;;;;;22.27;21.17;;;;;;;12.38;89.36;98403.59;5070905;28;20146;-66
2022/12/09 03:33:21;;;;;;;22.33;21.23;;;;;;;12.43;89.43;98403.34;5070158;28;20271;-65
2022/12/09 03:35:54;;;;;;;21.40;20.20;;;;;;;12.44;89.12;98400.19;5065187;28;20407;-66
2022/12/09 03:38:24;;;;;;;22.30;21.30;;;;;;;12.49;89.31;98400.00;5069808;28;20060;-65
2022/12/09 03:41:03;;;;;;;22.20;21.13;;;;;;;12.46;89.06;98397.88;5069151;28;20049;-65
2022/12/09 03:43:35;;;;;;;21.03;20.00;;;;;;;12.39;89.25;98386.44;5058780;28;20121;-65
2022/12/09 03:46:02;;;;;;;23.00;21.80;;;;;;;12.42;89.48;98388.53;5071514;28;20827;-65
2022/12/09 03:48:30;;;;;;;20.77;19.87;;;;;;;12.45;89.99;98389.84;5070491;28;20492;-66
2022/12/09 03:51:02;;;;;;;20.80;19.90;;;;;;;12.37;89.70;98387.94;5078190;28;20040;-65
2022/12/09 03:53:40;;;;;;;24.27;23.17;;;;;;;12.17;89.83;98381.22;5064683;28;20495;-65
2022/12/09 03:56:17;;;;;;;23.07;21.83;;;;;;;12.15;90.44;98391.94;5066864;28;20048;-65
2022/12/09 03:58:47;;;;;;;24.83;23.63;;;;;;;12.10;90.79;98390.16;5070200;28;20143;-64
2022/12/09 04:01:15;;;;;;;24.05;22.73;;;;;;;11.99;91.48;98388.97;5066244;28;20071;-64
2022/12/09 04:03:48;;;;;;;24.67;23.37;;;;;;;11.95;91.49;98383.22;5074752;28;20044;-64
2022/12/09 04:06:15;;;;;;;25.33;24.03;;;;;;;11.95;91.99;98394.41;5069584;28;20076;-64
2022/12/09 04:08:42;;;;;;;25.03;23.87;;;;;;;11.93;92.05;98391.16;5076676;28;20095;-64
2022/12/09 04:11:09;;;;;;;24.70;23.50;;;;;;;11.95;92.37;98394.41;5072374;28;20089;-64
2022/12/09 04:13:36;;;;;;;22.87;21.87;;;;;;;11.96;92.34;98389.63;5085259;28;20090;-64
2022/12/09 04:16:03;;;;;;;24.30;23.20;;;;;;;11.94;92.50;98386.38;5075547;28;20052;-63
2022/12/09 04:18:30;;;;;;;23.70;22.60;;;;;;;11.80;92.75;98361.47;5067579;28;20056;-63
2022/12/09 04:20:57;;;;;;;23.50;22.40;;;;;;;11.92;92.88;98378.31;5073842;28;20564;-63
2022/12/09 04:23:24;;;;;;;22.93;21.90;;;;;;;11.91;92.91;98376.69;5073837;28;20462;-63
2022/12/09 04:25:51;;;;;;;23.77;22.67;;;;;;;11.92;93.18;98371.91;5072436;28;20045;-63
2022/12/09 04:28:17;;;;;;;24.13;23.03;;;;;;;11.91;93.09;98365.50;5074733;28;20126;-63
2022/12/09 04:30:45;;;;;;;23.90;22.80;;;;;;;11.93;93.19;98368.78;5075193;28;20052;-63
2022/12/09 04:33:13;;;;;;;23.30;22.20;;;;;;;11.90;93.36;98361.09;5067252;28;20059;-63
2022/12/09 04:35:40;;;;;;;21.90;20.90;;;;;;;11.95;93.32;98382.41;5056547;28;20052;-63
2022/12/09 04:38:07;;;;;;;24.33;23.23;;;;;;;11.76;93.46;98341.75;5074437;28;20055;-63
2022/12/09 04:40:33;;;;;;;24.83;23.63;;;;;;;11.90;93.46;98369.47;5073936;28;20051;-64
2022/12/09 04:43:00;;;;;;;23.90;22.80;;;;;;;11.90;93.53;98363.03;5061822;28;20067;-66
2022/12/09 04:45:27;;;;;;;24.43;23.33;;;;;;;11.86;93.62;98360.09;5075877;28;20095;-64
2022/12/09 04:47:54;;;;;;;23.47;22.47;;;;;;;11.92;93.64;98367.13;5075670;28;20045;-64
2022/12/09 04:50:22;;;;;;;23.77;22.77;;;;;;;11.94;93.84;98375.19;5075588;28;20131;-63
2022/12/09 04:52:49;;;;;;;43.53;41.70;;;;;;;11.95;93.80;98366.44;5077741;28;20044;-64
2022/12/09 04:55:15;;;;;;;24.60;23.50;;;;;;;11.97;93.77;98361.34;5059874;28;20056;-64
2022/12/09 04:57:43;;;;;;;23.97;22.87;;;;;;;11.96;93.63;98356.06;5068356;28;20090;-63
2022/12/09 05:00:10;;;;;;;24.07;22.97;;;;;;;12.00;93.75;98360.66;5085611;28;20044;-64
2022/12/09 05:02:38;;;;;;;23.77;22.67;;;;;;;12.01;93.84;98353.09;5072309;28;20047;-64
2022/12/09 05:05:05;;;;;;;23.63;22.53;;;;;;;11.96;93.70;98350.47;5074721;28;20056;-64
2022/12/09 05:07:33;;;;;;;23.10;22.00;;;;;;;11.99;93.85;98345.00;5086101;28;20097;-64
2022/12/09 05:09:59;;;;;;;23.60;22.40;;;;;;;12.00;93.80;98351.44;5071870;28;20143;-63
2022/12/09 05:12:27;;;;;;;23.20;22.10;;;;;;;11.99;93.56;98355.41;5067746;28;21169;-63
2022/12/09 05:14:54;;;;;;;23.70;22.67;;;;;;;12.00;93.81;98352.28;5074032;28;20045;-63
2022/12/09 05:17:20;;;;;;;22.20;21.20;;;;;;;11.96;93.82;98342.91;5067031;28;20036;-64
2022/12/09 05:19:48;;;;;;;24.00;22.90;;;;;;;11.92;93.90;98335.56;5083166;28;20052;-64
2022/12/09 05:22:16;;;;;;;23.20;22.10;;;;;;;11.88;93.96;98332.63;5085017;28;20055;-64
2022/12/09 05:24:45;;;;;;;22.67;21.67;;;;;;;11.94;93.88;98341.63;5099291;28;20055;-64
2022/12/09 05:27:13;;;;;;;22.55;21.55;;;;;;;11.97;94.10;98350.16;5102781;28;20040;-64
2022/12/09 05:29:41;;;;;;;21.70;20.70;;;;;;;11.97;94.15;98350.16;5079500;28;20040;-64
2022/12/09 05:32:08;;;;;;;22.50;21.40;;;;;;;12.01;94.20;98342.72;5090104;28;20425;-63
2022/12/09 05:34:35;;;;;;;21.33;20.33;;;;;;;12.03;94.19;98350.75;5097731;28;20083;-63
2022/12/09 05:37:03;;;;;;;22.33;21.23;;;;;;;12.01;94.20;98351.09;5090292;28;20039;-63
2022/12/09 05:39:30;;;;;;;21.90;20.90;;;;;;;12.02;93.98;98355.53;5107743;28;20040;-64
2022/12/09 05:41:57;;;;;;;21.50;20.50;;;;;;;12.03;94.10;98351.59;5094000;28;20047;-64
2022/12/09 05:44:24;;;;;;;22.90;21.80;;;;;;;12.04;94.10;98356.00;5093828;28;20048;-63
2022/12/09 05:46:51;;;;;;;22.50;21.50;;;;;;;12.05;94.24;98354.03;5095245;28;20044;-64
2022/12/09 05:49:18;;;;;;;21.83;20.83;;;;;;;12.02;94.16;98344.34;5093944;28;20418;-64
2022/12/09 05:51:45;;;;;;;21.97;20.87;;;;;;;12.05;94.08;98340.84;5088087;28;20051;-64
2022/12/09 05:54:12;;;;;;;23.07;21.97;;;;;;;12.00;94.01;98341.09;5089162;28;20054;-64
2022/12/09 05:56:40;;;;;;;22.57;21.47;;;;;;;12.03;94.17;98347.94;5091434;28;20176;-63
2022/12/09 05:59:13;;;;;;;21.77;20.67;;;;;;;12.02;94.24;98341.53;5087250;28;20486;-63
2022/12/09 06:01:40;;;;;;;21.90;20.80;;;;;;;12.03;94.00;98345.16;5093894;28;20056;-64
2022/12/09 06:04:07;;;;;;;22.20;21.10;;;;;;;12.01;94.48;98345.50;5092860;28;20136;-64
2022/12/09 06:06:35;;;;;;;22.50;21.40;;;;;;;12.07;94.29;98340.53;5091922;28;20144;-63
2022/12/09 06:09:02;;;;;;;22.70;21.50;;;;;;;12.05;94.15;98335.25;5090715;28;20051;-63
2022/12/09 06:11:31;;;;;;;23.23;22.13;;;;;;;12.05;94.17;98338.06;5087957;28;20517;-63
2022/12/09 06:13:58;;;;;;;22.47;21.37;;;;;;;12.08;94.21;98339.34;5074329;28;20049;-63
2022/12/09 06:16:25;;;;;;;21.90;20.80;;;;;;;11.93;94.11;98315.66;5074435;28;20052;-63
2022/12/09 06:18:53;;;;;;;22.40;21.30;;;;;;;12.07;94.01;98334.94;5075249;28;20525;-64
2022/12/09 06:21:21;;;;;;;22.10;21.00;;;;;;;12.14;94.02;98339.97;5070202;28;20074;-64
2022/12/09 06:23:49;;;;;;;23.60;22.50;;;;;;;12.18;93.92;98340.91;5070539;28;20503;-63
2022/12/09 06:26:23;;;;;;;23.53;22.33;;;;;;;12.12;93.76;98331.91;5080345;28;20058;-63
2022/12/09 06:28:51;;;;;;;21.87;20.77;;;;;;;12.13;93.95;98332.72;5055348;28;20049;-63
2022/12/09 06:31:20;;;;;;;21.70;20.60;;;;;;;12.19;93.62;98342.53;5073645;28;20048;-63
2022/12/09 06:33:48;;;;;;;22.75;21.65;;;;;;;12.19;93.74;98356.53;5070644;28;20572;-63
2022/12/09 06:36:26;;;;;;;21.63;20.53;;;;;;;12.14;93.73;98334.38;5068366;28;20048;-63
2022/12/09 06:38:55;;;;;;;23.13;22.02;;;;;;;12.20;93.63;98336.56;5072316;28;20083;-63
2022/12/09 06:41:22;;;;;;;22.20;21.10;;;;;;;12.24;93.94;98333.91;5076622;28;20561;-64
2022/12/09 06:43:49;;;;;;;22.13;21.03;;;;;;;12.36;93.75;98350.75;5078620;28;20044;-63
2022/12/09 06:46:22;;;;;;;23.60;22.40;;;;;;;12.30;93.95;98330.53;5066255;28;20052;-63
2022/12/09 06:48:50;;;;;;;22.97;21.87;;;;;;;12.47;93.90;98339.91;5070711;28;20189;-64
2022/12/09 06:51:18;;;;;;;22.47;21.37;;;;;;;12.51;93.96;98338.88;5072540;28;20522;-63
2022/12/09 06:53:45;;;;;;;22.87;21.77;;;;;;;12.53;93.78;98353.34;5080707;28;20048;-63
2022/12/09 06:56:13;;;;;;;45.60;43.63;;;;;;;12.54;94.21;98354.97;5077449;28;20090;-64
2022/12/09 06:58:42;;;;;;;22.55;21.45;;;;;;;12.55;94.00;98353.81;5074449;28;20072;-63
2022/12/09 07:01:13;;;;;;;22.53;21.43;;;;;;;12.56;94.03;98361.03;5070800;28;20049;-63
2022/12/09 07:03:43;;;;;;;22.63;21.53;;;;;;;12.54;94.02;98348.53;5056566;28;20048;-64
2022/12/09 07:06:22;;;;;;;22.30;21.20;;;;;;;12.45;93.75;98359.88;5074141;28;20129;-63
2022/12/09 07:08:49;;;;;;;22.53;21.43;;;;;;;12.36;94.17;98349.91;5068911;28;20457;-63
2022/12/09 07:11:17;;;;;;;28.13;26.83;;;;;;;12.31;94.09;98345.38;5076553;28;20300;-64
2022/12/09 07:13:44;;;;;;;22.37;21.27;;;;;;;12.28;94.38;98346.88;5045906;28;20048;-64
2022/12/09 07:16:11;;;;;;;22.93;21.73;;;;;;;12.25;94.24;98346.75;5070857;28;20052;-64
2022/12/09 07:18:39;;;;;;;24.57;23.27;;;;;;;12.25;94.57;98350.38;5068531;28;20101;-64
2022/12/09 07:21:11;;;;;;;23.45;22.25;;;;;;;12.22;94.38;98347.44;5070340;28;20080;-63
2022/12/09 07:23:40;;;;;;;27.33;25.98;;;;;;;12.18;94.50;98350.09;5069780;28;20056;-64
2022/12/09 07:26:08;;;;;;;23.00;21.80;;;;;;;12.16;94.58;98348.81;5080884;28;20080;-64
2022/12/09 07:28:37;;;;;;;22.43;21.23;;;;;;;12.12;94.66;98347.88;5072047;28;20398;-64
2022/12/09 07:31:05;;;;;;;25.42;24.13;;;;;;;12.09;94.85;98355.78;5078206;28;20059;-65
2022/12/09 07:33:32;;;;;;;24.50;23.20;;;;;;;11.94;94.80;98334.06;5063486;28;20055;-64
2022/12/09 07:35:59;;;;;;;35.03;33.33;;;;;;;12.09;94.79;98352.97;5070971;28;20086;-64
2022/12/09 07:38:26;;;;;;;22.50;21.30;;;;;;;12.13;94.85;98360.69;5069617;28;20065;-64
2022/12/09 07:40:54;;;;;;;23.70;22.40;;;;;;;12.15;94.83;98363.97;5079730;28;20051;-64
2022/12/09 07:43:21;;;;;;;24.80;23.50;;;;;;;12.14;94.82;98356.75;5077839;28;20043;-63
2022/12/09 07:45:48;;;;;;;27.10;25.70;;;;;;;12.13;94.71;98358.69;5069694;28;20044;-64
2022/12/09 07:48:15;;;;;;;25.98;24.65;;;;;;;12.11;94.76;98363.84;5071150;28;20070;-64
2022/12/09 07:50:42;;;;;;;45.90;43.87;;;;;;;12.15;94.72;98355.56;5071081;28;20053;-64
2022/12/09 07:53:09;;;;;;;25.80;24.50;;;;;;;12.04;94.61;98347.63;5064032;28;20045;-65
2022/12/09 07:55:36;;;;;;;24.25;23.05;;;;;;;12.12;94.81;98359.88;5066696;28;20392;-64
2022/12/09 07:58:03;;;;;;;26.30;24.90;;;;;;;12.15;94.63;98363.97;5077839;28;20048;-65
2022/12/09 08:00:30;;;;;;;25.67;24.37;;;;;;;12.15;94.69;98375.16;5067692;28;20103;-65
2022/12/09 08:02:57;;;;;;;25.13;23.83;;;;;;;12.14;94.64;98370.75;5066090;28;20048;-65
2022/12/09 08:05:24;;;;;;;24.15;22.85;;;;;;;12.14;94.60;98373.53;5071221;28;20052;-64
2022/12/09 08:07:52;;;;;;;26.70;25.30;;;;;;;12.16;94.91;98385.19;5070645;28;20083;-65
2022/12/09 08:10:19;;;;;;;25.47;24.07;;;;;;;12.19;95.13;98382.50;5071098;28;20048;-64
2022/12/09 08:12:46;;;;;;;26.10;24.70;;;;;;;12.22;94.89;98392.22;5073357;28;20048;-65
2022/12/09 08:15:15;;;;;;;24.80;23.50;;;;;;;12.19;94.96;98393.72;5059213;28;20048;-65
2022/12/09 08:17:42;;;;;;;42.83;40.83;;;;;;;12.22;95.19;98393.03;5091769;28;20105;-65
2022/12/09 08:20:10;;;;;;;25.83;24.42;;;;;;;12.18;95.02;98392.09;5070645;28;20058;-66
2022/12/09 08:22:37;;;;;;;41.87;39.93;;;;;;;12.19;95.00;98395.69;5080027;28;20044;-66
2022/12/09 08:25:05;;;;;;;24.00;22.70;;;;;;;12.19;95.15;98390.09;5063761;28;20083;-65
2022/12/09 08:27:33;;;;;;;24.02;22.70;;;;;;;12.16;95.18;98394.38;5071084;28;20446;-65
2022/12/09 08:30:00;;;;;;;27.63;26.10;;;;;;;12.13;95.19;98388.66;5060558;28;20059;-66
2022/12/09 08:32:28;;;;;;;33.77;32.03;;;;;;;12.13;95.21;98391.47;5066043;28;20072;-65
2022/12/09 08:34:55;;;;;;;24.30;22.90;;;;;;;12.13;95.44;98400.66;5071385;28;20049;-65
2022/12/09 08:37:23;;;;;;;24.50;23.10;;;;;;;12.12;95.38;98392.63;5063088;28;20052;-65
2022/12/09 08:39:50;;;;;;;23.83;22.53;;;;;;;12.14;95.53;98402.31;5069285;28;20048;-65
2022/12/09 08:42:18;;;;;;;25.07;23.67;;;;;;;12.13;95.60;98406.28;5070747;28;20158;-65
2022/12/09 08:44:45;;;;;;;25.37;23.97;;;;;;;12.14;95.83;98396.72;5079451;28;20044;-66
2022/12/09 08:47:13;;;;;;;25.10;23.70;;;;;;;12.22;95.72;98414.59;5068346;28;20449;-65
2022/12/09 08:49:40;;;;;;;26.77;25.30;;;;;;;12.20;95.72;98411.31;5050373;28;20059;-65
2022/12/09 08:52:07;;;;;;;27.23;25.83;;;;;;;12.23;95.62;98419.84;5062457;28;20044;-66
2022/12/09 08:54:34;;;;;;;23.90;22.60;;;;;;;12.27;95.58;98419.97;5065379;28;20060;-65
2022/12/09 08:57:01;;;;;;;23.95;22.65;;;;;;;12.27;95.65;98417.16;5088646;28;20094;-65
2022/12/09 08:59:28;;;;;;;34.87;33.13;;;;;;;12.29;95.83;98426.03;5075350;28;20052;-65
2022/12/09 09:01:55;;;;;;;39.40;37.50;;;;;;;12.25;95.56;98420.31;5075719;28;20059;-65
2022/12/09 09:04:22;;;;;;;42.07;40.07;;;;;;;12.28;95.61;98425.22;5076273;28;20064;-67
2022/12/09 09:06:51;;;;;;;24.33;23.03;;;;;;;12.29;95.58;98431.66;5076789;28;20074;-66
2022/12/09 09:09:19;;;;;;;35.73;34.03;;;;;;;12.28;95.61;98430.03;5072862;28;20094;-66
2022/12/09 09:11:47;;;;;;;26.17;24.77;;;;;;;12.30;95.74;98445.28;5072948;28;20049;-66
2022/12/09 09:14:14;;;;;;;24.37;23.07;;;;;;;12.27;95.58;98433.97;5080693;28;20544;-65
2022/12/09 09:16:43;;;;;;;25.63;24.23;;;;;;;12.34;95.70;98445.41;5084432;28;20114;-65
2022/12/09 09:19:17;;;;;;;25.97;24.57;;;;;;;12.35;95.69;98447.06;5076243;28;20044;-65
2022/12/09 09:21:45;;;;;;;33.40;31.70;;;;;;;12.34;95.88;98439.81;5094382;28;20506;-66
2022/12/09 09:24:16;;;;;;;26.40;25.03;;;;;;;12.44;95.87;98455.38;5092924;28;20052;-66
2022/12/09 09:26:45;;;;;;;25.93;24.53;;;;;;;12.44;95.66;98456.19;5094162;28;20093;-67
2022/12/09 09:29:14;;;;;;;25.17;23.77;;;;;;;12.45;95.64;98455.03;5085195;28;20040;-66
2022/12/09 09:31:41;;;;;;;24.35;22.95;;;;;;;12.41;95.54;98445.69;5084837;28;20131;-65
2022/12/09 09:34:09;;;;;;;25.80;24.43;;;;;;;12.47;95.55;98452.69;5094719;28;20343;-65
2022/12/09 09:36:38;;;;;;;27.58;26.17;;;;;;;12.43;95.72;98434.97;5101813;28;20459;-66
2022/12/09 09:39:06;;;;;;;24.77;23.48;;;;;;;12.60;95.69;98452.75;5091084;28;20615;-66
2022/12/09 09:41:59;;;;;;;28.48;27.05;;;;;;;12.62;95.58;98467.22;5098031;28;20135;-65
2022/12/09 09:44:43;;;;;;;24.17;22.88;;;;;;;12.73;96.00;98460.03;5088210;28;20097;-66
2022/12/09 09:47:14;;;;;;;24.27;22.87;;;;;;;12.77;95.88;98464.56;5093834;28;20055;-66
2022/12/09 09:50:05;;;;;;;26.70;24.40;;;;;;;12.81;95.77;98471.13;5098665;28;20050;-65
2022/12/09 09:52:40;;;;;;;23.67;22.40;;;;;;;12.93;96.12;98466.72;5090819;28;20075;-66
2022/12/09 09:55:17;;;;;;;24.75;23.45;;;;;;;12.95;95.83;98468.00;5104718;28;20054;-65
2022/12/09 09:57:55;;;;;;;25.42;24.13;;;;;;;12.96;95.60;98469.66;5104893;28;20040;-65
2022/12/09 10:00:27;;;;;;;25.40;24.10;;;;;;;13.07;96.17;98472.00;5093750;28;20071;-65
2022/12/09 10:03:00;;;;;;;25.58;24.27;;;;;;;13.15;95.89;98479.47;5091634;28;20044;-66
2022/12/09 10:05:42;;;;;;;50.63;48.30;;;;;;;13.19;96.08;98472.00;5083980;28;20070;-65
2022/12/09 10:08:27;;;;;;;23.48;22.23;;;;;;;13.24;96.55;98486.66;5100901;28;20494;-66
2022/12/09 10:11:37;;;;;;;23.48;22.27;;;;;;;13.19;95.93;98492.44;5092029;28;20097;-65
2022/12/09 10:14:05;;;;;;;23.42;22.20;;;;;;;13.24;96.36;98494.25;5080825;28;20056;-65
2022/12/09 10:16:46;;;;;;;23.15;21.95;;;;;;;13.25;96.09;98502.28;5081913;28;20041;-66
2022/12/09 10:19:26;;;;;;;35.78;34.08;;;;;;;13.25;95.96;98501.47;5080762;28;20562;-66
2022/12/09 10:21:55;;;;;;;23.17;21.98;;;;;;;13.25;96.14;98507.91;5077099;28;20048;-65
2022/12/09 10:24:32;;;;;;;50.50;48.28;;;;;;;13.21;95.75;98511.72;5070786;28;20518;-65
2022/12/09 10:27:07;;;;;;;23.50;22.30;;;;;;;13.17;95.92;98513.59;5074893;28;20098;-66
2022/12/09 10:29:48;;;;;;;24.08;22.88;;;;;;;13.10;95.33;98505.75;5076787;28;20091;-66
2022/12/09 10:32:18;;;;;;;48.10;46.00;;;;;;;13.07;95.26;98514.03;5068536;28;20131;-65
2022/12/09 10:34:46;;;;;;;22.63;21.42;;;;;;;13.03;95.21;98522.31;5074480;28;20074;-64
2022/12/09 10:37:35;;;;;;;24.15;22.92;;;;;;;12.89;94.87;98519.84;5072257;28;20058;-65
2022/12/09 10:40:18;;;;;;;25.85;24.55;;;;;;;12.90;94.93;98524.25;5078087;28;20051;-65
2022/12/09 10:45:44;;;;;;;23.33;22.13;;;;;;;12.87;95.08;98516.53;5068968;28;20485;-65
2022/12/09 10:48:56;;;;;;;47.78;45.63;;;;;;;12.74;95.13;98501.69;5065354;28;20461;-65
2022/12/09 10:51:29;;;;;;;52.70;50.40;;;;;;;12.89;95.20;98514.22;5075517;28;20055;-65
2022/12/09 10:54:02;;;;;;;23.35;22.15;;;;;;;12.91;95.29;98509.09;5065648;28;20052;-66
2022/12/09 10:56:35;;;;;;;23.15;21.95;;;;;;;12.90;95.14;98510.25;5072239;28;20067;-65
2022/12/09 10:59:23;;;;;;;22.83;21.63;;;;;;;12.86;94.78;98512.13;5068666;28;20372;-66
2022/12/09 11:01:57;;;;;;;43.50;41.58;;;;;;;12.88;94.90;98520.97;5068177;28;20049;-66
2022/12/09 11:04:31;;;;;;;22.83;21.67;;;;;;;12.87;94.92;98510.13;5064254;28;20048;-66
2022/12/09 11:07:03;;;;;;;47.20;45.13;;;;;;;12.80;94.88;98507.88;5072489;28;20097;-66
2022/12/09 11:09:33;;;;;;;23.50;22.30;;;;;;;12.84;94.73;98519.22;5073715;28;20056;-66
2022/12/09 11:12:04;;;;;;;23.15;21.95;;;;;;;12.81;94.90;98507.53;5073398;28;20106;-66
2022/12/09 11:15:18;;;;;;;24.10;22.80;;;;;;;12.74;94.88;98507.28;5082247;28;20048;-65
2022/12/09 11:18:07;;;;;;;23.00;21.80;;;;;;;12.81;94.92;98515.94;5070131;28;20045;-66
2022/12/09 11:20:34;;;;;;;38.53;36.73;;;;;;;12.85;95.37;98504.03;5079364;28;20471;-66
2022/12/09 11:23:14;;;;;;;25.40;24.10;;;;;;;12.93;95.21;98517.97;5081429;28;20079;-66
2022/12/09 11:25:59;;;;;;;23.15;21.95;;;;;;;13.02;95.46;98515.91;5071425;28;20143;-65
2022/12/09 11:28:38;;;;;;;22.40;21.30;;;;;;;13.20;95.73;98513.72;5071429;28;20045;-65
2022/12/09 11:31:23;;;;;;;26.27;24.98;;;;;;;13.37;95.97;98509.91;5073711;28;20055;-65
2022/12/09 11:34:22;;;;;;;24.63;23.35;;;;;;;13.54;96.38;98505.22;5073493;28;20048;-65
2022/12/09 11:36:52;;;;;;;23.15;21.95;;;;;;;13.68;96.61;98505.72;5072336;28;20053;-65